Time;durP1;ratioP1;P1;durP2;ratioP2;P2;SDS_P1;SDS_P2;PMS_P1;PMS_P2;Temp;Humidity;BMP_temperature;BMP_pressure;BME280_temperature;BME280_humidity;BME280_pressure;Samples;Min_cycle;Max_cycle;Signal;HPM_P1;HPM_P2
2024/02/07 00:02:22;;;;;;;;;;;;;;;16.03;43.98;100345.59;4899043;29;1113;-50
2024/02/07 00:04:48;;;;;;;;;;;;;;;17.29;41.47;100349.94;4903203;29;1165;-48
2024/02/07 00:07:13;;;;;;;;;;;;;;;16.65;42.37;100348.75;4902918;29;1034;-44
2024/02/07 00:09:40;;;;;;;;;;;;;;;16.07;43.46;100355.00;4902965;29;1022;-47
2024/02/07 00:12:06;;;;;;;;;;;;;;;15.76;43.58;100349.38;4903068;29;1989;-46
2024/02/07 00:14:31;;;;;;;;;;;;;;;17.67;40.62;100356.53;4890660;29;1019;-49
2024/02/07 00:16:57;;;;;;;;;;;;;;;16.65;42.33;100347.88;4890851;29;1170;-47
2024/02/07 00:19:23;;;;;;;;;;;;;;;17.18;41.59;100353.50;4903128;29;1050;-49
2024/02/07 00:21:49;;;;;;;;;;;;;;;18.18;39.15;100354.09;4894948;29;2556;-45
2024/02/07 00:24:14;;;;;;;;;;;;;;;16.72;41.97;100364.16;4902904;29;1085;-47
2024/02/07 00:26:40;;;;;;;;;;;;;;;16.31;42.63;100362.03;4895382;29;995;-50
2024/02/07 00:29:06;;;;;;;;;;;;;;;16.63;42.65;100366.59;4901769;29;1040;-46
2024/02/07 00:31:31;;;;;;;;;;;;;;;16.88;41.59;100367.28;4902493;29;1987;-48
2024/02/07 00:33:57;;;;;;;;;;;;;;;16.20;43.11;100373.47;4890656;29;1135;-46
2024/02/07 00:36:23;;;;;;;;;;;;;;;15.83;43.66;100368.31;4902307;29;1062;-43
2024/02/07 00:38:48;;;;;;;;;;;;;;;17.02;41.94;100368.84;4895453;29;899;-46
2024/02/07 00:41:20;;;;;;;;;;;;;;;16.90;41.58;100364.50;4883981;29;1433;-48
2024/02/07 00:43:46;;;;;;;;;;;;;;;16.01;43.66;100366.09;4902713;29;1018;-49
2024/02/07 00:46:12;;;;;;;;;;;;;;;16.16;43.25;100370.19;4889763;29;1110;-48
2024/02/07 00:48:39;;;;;;;;;;;;;;;17.25;40.87;100367.94;4902282;29;1078;-47
2024/02/07 00:51:04;;;;;;;;;;;;;;;16.19;42.86;100365.63;4895987;29;2669;-50
2024/02/07 00:53:30;;;;;;;;;;;;;;;16.71;42.49;100362.50;4902398;29;1903;-50
2024/02/07 00:55:56;;;;;;;;;;;;;;;17.19;41.04;100365.78;4902108;29;1102;-49
2024/02/07 00:58:22;;;;;;;;;;;;;;;16.24;43.02;100363.47;4895720;29;1101;-49
2024/02/07 01:00:48;;;;;;;;;;;;;;;16.96;41.75;100360.53;4886465;29;1125;-48
2024/02/07 01:03:13;;;;;;;;;;;;;;;16.70;41.81;100364.28;4892913;29;894;-46
2024/02/07 01:05:39;;;;;;;;;;;;;;;16.44;42.93;100359.25;4891334;29;1074;-49
2024/02/07 01:08:05;;;;;;;;;;;;;;;18.18;38.84;100351.41;4889187;29;999;-48
2024/02/07 01:10:30;;;;;;;;;;;;;;;16.69;41.93;100348.50;4901630;29;1035;-49
2024/02/07 01:12:56;;;;;;;;;;;;;;;16.22;42.94;100347.66;4900304;29;1985;-49
2024/02/07 01:15:21;;;;;;;;;;;;;;;16.06;42.97;100348.03;4892176;29;851;-48
2024/02/07 01:17:47;;;;;;;;;;;;;;;17.17;41.49;100346.47;4888057;29;1138;-47
2024/02/07 01:20:13;;;;;;;;;;;;;;;16.87;41.27;100340.84;4898525;29;986;-47
2024/02/07 01:22:38;;;;;;;;;;;;;;;16.14;42.76;100342.97;4888885;29;2802;-48
2024/02/07 01:25:05;;;;;;;;;;;;;;;15.82;43.56;100340.94;4901971;29;1078;-48
2024/02/07 01:27:31;;;;;;;;;;;;;;;17.07;41.48;100339.22;4900592;29;1011;-51
2024/02/07 01:29:57;;;;;;;;;;;;;;;16.88;41.23;100343.38;4901795;29;1034;-50
2024/02/07 01:32:22;;;;;;;;;;;;;;;16.09;42.87;100341.63;4901278;29;1902;-50
2024/02/07 01:34:48;;;;;;;;;;;;;;;15.89;43.09;100331.56;4894178;29;1146;-48
2024/02/07 01:37:14;;;;;;;;;;;;;;;17.70;39.97;100342.16;4884329;29;1038;-47
2024/02/07 01:39:40;;;;;;;;;;;;;;;16.67;41.70;100329.16;4898757;29;867;-46
2024/02/07 01:42:06;;;;;;;;;;;;;;;16.06;42.88;100328.59;4902032;29;1111;-46
2024/02/07 01:44:31;;;;;;;;;;;;;;;15.90;43.63;100327.09;4901619;29;1062;-47
2024/02/07 01:47:12;;;;;;;;;;;;;;;16.99;41.12;100333.69;4888720;29;1102;-45
2024/02/07 01:49:45;;;;;;;;;;;;;;;16.00;43.10;100328.09;4900718;29;1143;-50
2024/02/07 01:52:11;;;;;;;;;;;;;;;17.22;40.98;100330.97;4894837;29;2540;-51
2024/02/07 01:54:37;;;;;;;;;;;;;;;16.89;41.09;100333.59;4901386;29;1105;-48
2024/02/07 01:57:03;;;;;;;;;;;;;;;16.12;42.83;100330.75;4900837;29;1569;-48
2024/02/07 01:59:29;;;;;;;;;;;;;;;17.68;40.18;100333.44;4900792;29;1229;-46
2024/02/07 02:01:54;;;;;;;;;;;;;;;16.67;41.77;100326.50;4889512;29;1136;-47
2024/02/07 02:04:22;;;;;;;;;;;;;;;16.06;43.01;100339.22;4886453;29;2193;-45
2024/02/07 02:06:47;;;;;;;;;;;;;;;16.13;43.29;100337.78;4915817;29;1022;-45
2024/02/07 02:09:13;;;;;;;;;;;;;;;17.13;40.70;100328.13;4898380;29;1087;-49
2024/02/07 02:11:38;;;;;;;;;;;;;;;16.23;42.68;100329.94;4891589;29;1902;-46
2024/02/07 02:14:04;;;;;;;;;;;;;;;16.61;42.24;100336.69;4915275;29;1163;-46
2024/02/07 02:16:30;;;;;;;;;;;;;;;17.10;40.72;100346.16;4912308;29;906;-49
2024/02/07 02:18:55;;;;;;;;;;;;;;;16.13;42.66;100343.09;4885900;29;1059;-44
2024/02/07 02:21:22;;;;;;;;;;;;;;;18.29;38.82;100347.81;4896488;29;2543;-46
2024/02/07 02:23:53;;;;;;;;;;;;;;;16.82;41.48;100346.53;4896698;29;1110;-48
2024/02/07 02:26:23;;;;;;;;;;;;;;;16.29;42.30;100337.41;4901016;29;1067;-50
2024/02/07 02:28:57;;;;;;;;;;;;;;;15.99;42.73;100338.84;4888360;29;1077;-47
2024/02/07 02:31:23;;;;;;;;;;;;;;;17.15;40.89;100343.13;4901365;29;1988;-50
2024/02/07 02:33:50;;;;;;;;;;;;;;;16.14;42.92;100342.97;4895838;29;1095;-45
2024/02/07 02:36:16;;;;;;;;;;;;;;;15.88;43.28;100350.25;4908772;29;1123;-47
2024/02/07 02:38:41;;;;;;;;;;;;;;;17.66;40.06;100360.19;4900306;29;1145;-47
2024/02/07 02:41:08;;;;;;;;;;;;;;;16.49;41.91;100361.53;4882927;29;900;-48
2024/02/07 02:43:34;;;;;;;;;;;;;;;16.25;43.04;100366.00;4900045;29;1007;-46
2024/02/07 02:45:59;;;;;;;;;;;;;;;17.60;39.91;100366.84;4901405;29;1154;-49
2024/02/07 02:48:25;;;;;;;;;;;;;;;16.44;42.17;100363.72;4900379;29;1186;-45
2024/02/07 02:50:51;;;;;;;;;;;;;;;15.95;42.99;100354.09;4899915;29;2551;-43
2024/02/07 02:53:16;;;;;;;;;;;;;;;15.87;42.87;100356.50;4902368;29;1969;-49
2024/02/07 02:55:42;;;;;;;;;;;;;;;15.65;43.33;100358.97;4901007;29;1051;-46
2024/02/07 02:58:09;;;;;;;;;;;;;;;17.77;40.00;100367.25;4886827;29;1037;-47
2024/02/07 03:00:35;;;;;;;;;;;;;;;16.51;42.10;100357.81;4895766;29;1116;-48
2024/02/07 03:03:02;;;;;;;;;;;;;;;16.03;42.86;100359.69;4912788;29;1262;-46
2024/02/07 03:05:38;;;;;;;;;;;;;;;16.00;43.32;100356.44;4893056;29;1010;-47
2024/02/07 03:08:16;;;;;;;;;;;;;;;17.62;39.83;100364.91;4891620;29;1050;-49
2024/02/07 03:10:43;;;;;;;;;;;;;;;16.15;43.05;100362.38;4903465;29;1086;-47
2024/02/07 03:13:10;;;;;;;;;;;;;;;15.84;43.19;100364.69;4896599;29;1902;-50
2024/02/07 03:15:35;;;;;;;;;;;;;;;15.72;43.03;100354.06;4889319;29;1043;-49
2024/02/07 03:18:01;;;;;;;;;;;;;;;17.60;40.24;100356.19;4904357;29;1146;-50
2024/02/07 03:20:27;;;;;;;;;;;;;;;16.14;42.78;100361.53;4891591;29;1089;-51
2024/02/07 03:22:54;;;;;;;;;;;;;;;16.51;42.86;100368.44;4895163;29;2557;-49
2024/02/07 03:25:20;;;;;;;;;;;;;;;17.08;40.97;100359.50;4903620;29;1117;-47
2024/02/07 03:27:46;;;;;;;;;;;;;;;16.16;42.84;100359.59;4899441;29;1038;-47
2024/02/07 03:30:21;;;;;;;;;;;;;;;15.93;43.68;100365.81;4885268;29;1153;-45
2024/02/07 03:32:47;;;;;;;;;;;;;;;18.02;39.19;100372.31;4894366;29;2018;-46
2024/02/07 03:35:14;;;;;;;;;;;;;;;16.47;42.50;100371.44;4888139;29;1174;-47
2024/02/07 03:37:39;;;;;;;;;;;;;;;16.01;43.44;100361.66;4894334;29;1058;-46
2024/02/07 03:40:05;;;;;;;;;;;;;;;16.14;43.17;100364.19;4903379;29;1073;-48
2024/02/07 03:42:31;;;;;;;;;;;;;;;17.24;40.69;100363.59;4903780;29;1043;-48
2024/02/07 03:44:59;;;;;;;;;;;;;;;16.24;42.88;100359.00;4900609;29;1018;-46
2024/02/07 03:47:25;;;;;;;;;;;;;;;17.68;40.27;100373.34;4884713;29;1385;-47
2024/02/07 03:49:51;;;;;;;;;;;;;;;16.74;41.72;100365.75;4884934;29;1152;-47
2024/02/07 03:52:18;;;;;;;;;;;;;;;16.01;43.12;100361.66;4886239;29;2694;-47
2024/02/07 03:54:50;;;;;;;;;;;;;;;15.94;43.11;100364.84;4897075;29;1091;-46
2024/02/07 03:57:19;;;;;;;;;;;;;;;17.03;41.60;100364.38;4885275;29;1059;-48
2024/02/07 03:59:45;;;;;;;;;;;;;;;16.49;42.42;100357.09;4897095;29;1137;-48
2024/02/07 04:02:11;;;;;;;;;;;;;;;15.90;43.27;100357.13;4898204;29;1112;-49
2024/02/07 04:04:37;;;;;;;;;;;;;;;15.77;43.22;100357.22;4901640;29;1109;-46
2024/02/07 04:07:03;;;;;;;;;;;;;;;15.99;43.45;100363.56;4903099;29;1088;-45
2024/02/07 04:09:30;;;;;;;;;;;;;;;17.23;40.74;100359.28;4903153;29;1131;-47
2024/02/07 05:16:54;;;;;;;;;;;;;;;17.53;40.31;100378.97;4894593;29;1034;-48
2024/02/07 05:19:19;;;;;;;;;;;;;;;17.61;39.70;100379.19;4889258;29;1114;-49
2024/02/07 05:21:45;;;;;;;;;;;;;;;17.14;40.70;100379.47;4899214;29;2436;-48
2024/02/07 05:24:11;;;;;;;;;;;;;;;16.96;41.11;100377.31;4890516;29;1038;-48
2024/02/07 05:26:37;;;;;;;;;;;;;;;16.77;41.40;100378.78;4900542;29;1078;-48
2024/02/07 05:29:03;;;;;;;;;;;;;;;16.56;41.73;100383.16;4897394;29;1078;-50
2024/02/07 05:31:29;;;;;;;;;;;;;;;16.46;41.90;100381.22;4901478;29;1906;-47
2024/02/07 05:33:55;;;;;;;;;;;;;;;16.28;42.29;100376.38;4890122;29;1049;-45
2024/02/07 05:36:21;;;;;;;;;;;;;;;16.20;42.56;100373.47;4882889;29;1125;-48
2024/02/07 05:38:46;;;;;;;;;;;;;;;16.10;42.85;100369.88;4894550;29;1019;-49
2024/02/07 05:41:12;;;;;;;;;;;;;;;15.93;43.05;100371.97;4898859;29;1066;-46
2024/02/07 05:43:38;;;;;;;;;;;;;;;15.83;43.47;100370.97;4901458;29;1054;-51
2024/02/07 05:46:03;;;;;;;;;;;;;;;15.69;43.32;100361.41;4889018;29;1218;-52
2024/02/07 05:48:29;;;;;;;;;;;;;;;15.62;43.96;100371.63;4893067;29;2105;-48
2024/02/07 05:50:55;;;;;;;;;;;;;;;15.54;43.93;100370.41;4888514;29;1093;-44
2024/02/07 05:53:20;;;;;;;;;;;;;;;15.51;43.91;100364.47;4901186;29;1983;-46
2024/02/07 05:55:46;;;;;;;;;;;;;;;15.45;43.98;100363.13;4889257;29;1161;-43
2024/02/07 05:58:12;;;;;;;;;;;;;;;16.52;41.72;100374.56;4888627;29;1170;-48
2024/02/07 06:00:38;;;;;;;;;;;;;;;17.02;40.25;100374.16;4901780;29;1105;-46
2024/02/07 06:03:05;;;;;;;;;;;;;;;16.16;42.28;100369.38;4883504;29;1137;-49
2024/02/07 06:05:34;;;;;;;;;;;;;;;15.94;42.59;100360.38;4890340;29;1100;-45
2024/02/07 06:07:59;;;;;;;;;;;;;;;15.78;43.00;100355.41;4901094;29;1145;-44
2024/02/07 06:10:25;;;;;;;;;;;;;;;15.57;43.64;100360.50;4896267;29;1085;-43
2024/02/07 06:12:51;;;;;;;;;;;;;;;15.49;43.57;100356.66;4882241;29;1914;-42
2024/02/07 06:15:16;;;;;;;;;;;;;;;15.37;43.88;100355.75;4900372;29;1155;-47
2024/02/07 06:17:42;;;;;;;;;;;;;;;15.61;43.72;100351.38;4891204;29;1038;-48
2024/02/07 06:20:08;;;;;;;;;;;;;;;17.05;40.59;100354.44;4894843;29;1233;-42
2024/02/07 06:22:35;;;;;;;;;;;;;;;16.60;41.05;100353.56;4894245;29;1197;-43
2024/02/07 06:25:01;;;;;;;;;;;;;;;16.07;42.20;100357.66;4882964;29;1037;-46
2024/02/07 06:27:26;;;;;;;;;;;;;;;15.75;42.97;100356.47;4895661;29;1090;-48
2024/02/07 06:29:52;;;;;;;;;;;;;;;15.58;43.67;100352.44;4900452;29;1117;-48
2024/02/07 06:32:17;;;;;;;;;;;;;;;15.48;43.87;100354.94;4904767;29;1911;-43
2024/02/07 06:34:43;;;;;;;;;;;;;;;15.39;43.92;100355.63;4886949;29;1150;-49
2024/02/07 06:37:08;;;;;;;;;;;;;;;15.97;42.64;100357.50;4886080;29;1133;-49
2024/02/07 06:39:34;;;;;;;;;;;;;;;17.24;39.97;100363.59;4903830;29;1178;-48
2024/02/07 06:42:00;;;;;;;;;;;;;;;16.60;40.92;100355.41;4899303;29;1078;-46
2024/02/07 06:44:25;;;;;;;;;;;;;;;16.06;42.50;100358.63;4893244;29;1231;-44
2024/02/07 06:46:51;;;;;;;;;;;;;;;15.82;43.05;100358.66;4890917;29;1069;-44
2024/02/07 06:49:16;;;;;;;;;;;;;;;15.63;43.10;100368.03;4892851;29;1348;-47
2024/02/07 06:51:42;;;;;;;;;;;;;;;15.49;43.37;100359.31;4885812;29;1960;-45
2024/02/07 06:54:07;;;;;;;;;;;;;;;15.54;43.73;100366.91;4897652;29;1118;-42
2024/02/07 06:56:33;;;;;;;;;;;;;;;17.01;40.32;100361.00;4904365;29;1073;-46
2024/02/07 06:59:00;;;;;;;;;;;;;;;16.83;40.57;100368.66;4904446;29;1146;-49
2024/02/07 07:01:27;;;;;;;;;;;;;;;16.17;42.01;100363.09;4900070;29;1150;-46
2024/02/07 07:03:53;;;;;;;;;;;;;;;15.82;42.55;100372.78;4903873;29;1137;-43
2024/02/07 07:06:19;;;;;;;;;;;;;;;15.69;42.81;100364.03;4893648;29;1042;-44
2024/02/07 07:08:45;;;;;;;;;;;;;;;15.53;43.42;100370.53;4904103;29;1096;-47
2024/02/07 07:11:10;;;;;;;;;;;;;;;15.43;43.33;100373.84;4891567;29;1038;-49
2024/02/07 07:13:36;;;;;;;;;;;;;;;15.89;42.39;100368.69;4897347;29;1987;-44
2024/02/07 07:16:02;;;;;;;;;;;;;;;17.19;39.91;100366.66;4897911;29;1128;-43
2024/02/07 07:18:27;;;;;;;;;;;;;;;16.41;41.19;100364.81;4895887;29;900;-45
2024/02/07 07:20:53;;;;;;;;;;;;;;;15.99;42.49;100368.00;4891306;29;1090;-45
2024/02/07 07:23:18;;;;;;;;;;;;;;;15.68;43.22;100373.84;4903901;29;1077;-42
2024/02/07 07:25:44;;;;;;;;;;;;;;;15.55;43.67;100364.13;4903569;29;1308;-45
2024/02/07 07:28:09;;;;;;;;;;;;;;;15.37;44.00;100370.78;4892684;29;1137;-47
2024/02/07 07:30:35;;;;;;;;;;;;;;;15.35;43.91;100362.13;4901936;29;1078;-46
2024/02/07 07:33:02;;;;;;;;;;;;;;;16.86;40.58;100363.94;4903721;29;1985;-47
2024/02/07 07:35:28;;;;;;;;;;;;;;;17.00;40.00;100367.25;4891586;29;1214;-45
2024/02/07 07:37:55;;;;;;;;;;;;;;;16.22;41.84;100355.63;4903697;29;1077;-44
2024/02/07 07:40:21;;;;;;;;;;;;;;;15.81;42.88;100354.31;4903029;29;1177;-44
2024/02/07 07:42:46;;;;;;;;;;;;;;;15.63;43.16;100352.13;4903099;29;1153;-47
2024/02/07 07:45:12;;;;;;;;;;;;;;;15.50;43.58;100353.03;4902788;29;1154;-45
2024/02/07 07:47:38;;;;;;;;;;;;;;;15.39;43.68;100345.03;4888142;29;1209;-46
2024/02/07 07:50:04;;;;;;;;;;;;;;;16.37;41.65;100348.28;4884535;29;1221;-44
2024/02/07 07:52:30;;;;;;;;;;;;;;;17.36;39.58;100341.34;4897462;29;1911;-45
2024/02/07 07:54:56;;;;;;;;;;;;;;;16.45;41.33;100344.19;4897489;29;957;-47
2024/02/07 07:57:21;;;;;;;;;;;;;;;15.94;42.49;100349.78;4903237;29;1046;-41
2024/02/07 07:59:47;;;;;;;;;;;;;;;15.77;42.60;100349.25;4903474;29;1162;-47
2024/02/07 08:02:12;;;;;;;;;;;;;;;15.57;43.47;100355.22;4892006;29;1070;-45
2024/02/07 08:04:38;;;;;;;;;;;;;;;15.49;43.24;100343.38;4901606;29;1038;-44
2024/02/07 08:07:04;;;;;;;;;;;;;;;15.51;43.59;100346.78;4889709;29;906;-44
2024/02/07 08:09:29;;;;;;;;;;;;;;;16.95;40.52;100350.88;4901148;29;1086;-44
2024/02/07 08:11:54;;;;;;;;;;;;;;;17.17;39.78;100343.81;4902538;29;1915;-47
2024/02/07 08:14:20;;;;;;;;;;;;;;;16.26;41.83;100345.63;4903433;29;1126;-47
2024/02/07 08:16:46;;;;;;;;;;;;;;;16.02;42.16;100349.19;4902617;29;1364;-48
2024/02/07 08:19:12;;;;;;;;;;;;;;;15.78;43.02;100347.47;4890089;29;1200;-48
2024/02/07 08:21:37;;;;;;;;;;;;;;;15.58;43.11;100341.84;4890761;29;1035;-44
2024/02/07 08:24:03;;;;;;;;;;;;;;;15.49;43.40;100338.09;4889878;29;1079;-49
2024/02/07 08:26:28;;;;;;;;;;;;;;;15.47;43.88;100336.50;4902626;29;1102;-46
2024/02/07 08:28:54;;;;;;;;;;;;;;;16.93;40.44;100340.38;4902730;29;1121;-45
2024/02/07 08:31:20;;;;;;;;;;;;;;;16.89;40.35;100342.44;4900197;29;858;-49
2024/02/07 08:33:46;;;;;;;;;;;;;;;16.22;41.90;100345.00;4902628;29;1907;-46
2024/02/07 08:36:11;;;;;;;;;;;;;;;15.89;42.72;100346.63;4902483;29;1053;-50
2024/02/07 08:38:37;;;;;;;;;;;;;;;15.73;42.72;100333.69;4896986;29;1087;-48
2024/02/07 08:41:04;;;;;;;;;;;;;;;15.55;43.44;100334.97;4895316;29;1066;-46
2024/02/07 08:43:29;;;;;;;;;;;;;;;15.48;43.44;100335.56;4897989;29;1209;-47
2024/02/07 08:45:55;;;;;;;;;;;;;;;16.06;42.27;100336.56;4902082;29;1100;-50
2024/02/07 08:48:20;;;;;;;;;;;;;;;17.29;39.94;100339.28;4902350;29;1161;-47
2024/02/07 08:50:45;;;;;;;;;;;;;;;16.58;41.17;100336.06;4890932;29;1224;-46
2024/02/07 08:53:11;;;;;;;;;;;;;;;16.05;42.15;100337.53;4894184;29;1906;-42
2024/02/07 08:55:37;;;;;;;;;;;;;;;15.81;43.06;100333.09;4899500;29;1102;-48
2024/02/07 08:58:02;;;;;;;;;;;;;;;15.65;42.92;100324.50;4896434;29;1135;-46
2024/02/07 09:00:28;;;;;;;;;;;;;;;15.52;43.53;100321.09;4901914;29;1352;-48
2024/02/07 09:02:54;;;;;;;;;;;;;;;15.47;43.43;100325.91;4901651;29;1414;-47
2024/02/07 09:05:20;;;;;;;;;;;;;;;16.54;41.55;100324.84;4887734;29;1050;-48
2024/02/07 09:07:45;;;;;;;;;;;;;;;17.19;39.89;100318.81;4891907;29;865;-46
2024/02/07 09:10:12;;;;;;;;;;;;;;;16.33;41.64;100322.09;4901305;29;1001;-49
2024/02/07 09:12:37;;;;;;;;;;;;;;;15.99;42.66;100309.66;4892201;29;1978;-46
2024/02/07 09:15:03;;;;;;;;;;;;;;;15.76;42.87;100318.41;4900948;29;1304;-45
2024/02/07 09:17:31;;;;;;;;;;;;;;;15.60;43.30;100320.53;4888901;29;1205;-45
2024/02/07 09:19:56;;;;;;;;;;;;;;;16.16;41.89;100316.31;4901443;29;1129;-45
2024/02/07 09:22:22;;;;;;;;;;;;;;;15.71;43.27;100309.94;4901003;29;1103;-46
2024/02/07 09:24:47;;;;;;;;;;;;;;;17.09;40.42;100312.56;4901871;29;1174;-46
2024/02/07 09:27:13;;;;;;;;;;;;;;;16.92;40.48;100305.94;4900679;29;1122;-48
2024/02/07 09:29:39;;;;;;;;;;;;;;;16.20;42.19;100303.66;4893976;29;995;-47
2024/02/07 09:32:04;;;;;;;;;;;;;;;15.94;42.72;100307.31;4890294;29;1929;-46
2024/02/07 09:34:30;;;;;;;;;;;;;;;15.79;42.87;100302.25;4890154;29;2044;-48
2024/02/07 09:36:55;;;;;;;;;;;;;;;15.62;43.56;100300.88;4888089;29;2028;-46
2024/02/07 09:39:22;;;;;;;;;;;;;;;15.48;43.88;100296.63;4896247;29;1972;-48
2024/02/07 09:41:47;;;;;;;;;;;;;;;15.55;43.82;100294.34;4897026;29;2243;-45
2024/02/07 09:44:15;;;;;;;;;;;;;;;16.99;40.77;100291.19;4884485;29;2022;-48
2024/02/07 09:46:41;;;;;;;;;;;;;;;16.73;40.84;100295.00;4900785;29;2426;-43
2024/02/07 09:49:07;;;;;;;;;;;;;;;16.18;42.10;100289.66;4904435;29;1015;-43
2024/02/07 09:51:32;;;;;;;;;;;;;;;15.87;42.86;100292.84;4893613;29;1152;-44
2024/02/07 09:53:58;;;;;;;;;;;;;;;15.70;43.35;100276.41;4900557;29;1916;-48
2024/02/07 09:56:24;;;;;;;;;;;;;;;15.57;43.82;100267.72;4899091;29;1051;-44
2024/02/07 09:58:49;;;;;;;;;;;;;;;15.44;43.98;100266.00;4893321;29;1085;-46
2024/02/07 10:01:15;;;;;;;;;;;;;;;16.36;42.01;100266.97;4891201;29;995;-45
2024/02/07 10:03:42;;;;;;;;;;;;;;;17.35;39.86;100273.16;4892499;29;1073;-46
2024/02/07 10:06:08;;;;;;;;;;;;;;;16.53;41.48;100262.94;4895974;29;1062;-43
2024/02/07 10:08:34;;;;;;;;;;;;;;;16.01;42.50;100262.63;4905282;29;903;-44
2024/02/07 10:11:00;;;;;;;;;;;;;;;15.85;43.19;100258.47;4913629;29;1135;-44
2024/02/07 10:13:25;;;;;;;;;;;;;;;15.65;43.44;100258.22;4889742;29;1992;-44
2024/02/07 10:15:51;;;;;;;;;;;;;;;15.60;43.76;100263.03;4897686;29;1981;-45
2024/02/07 10:18:17;;;;;;;;;;;;;;;15.43;43.91;100254.56;4887626;29;1058;-45
2024/02/07 10:20:55;;;;;;;;;;;;;;;16.35;42.25;100257.28;4900016;29;1031;-49
2024/02/07 10:23:21;;;;;;;;;;;;;;;17.17;40.14;100254.28;4895046;29;1101;-45
2024/02/07 10:25:54;;;;;;;;;;;;;;;16.30;41.92;100234.75;4900506;29;1114;-48
2024/02/07 10:28:19;;;;;;;;;;;;;;;16.20;42.38;100247.91;4900635;29;1178;-43
2024/02/07 10:31:00;;;;;;;;;;;;;;;15.82;43.13;100223.38;4896149;29;1050;-48
2024/02/07 10:33:39;;;;;;;;;;;;;;;15.61;43.79;100229.41;4900885;29;1911;-52
2024/02/07 10:36:04;;;;;;;;;;;;;;;15.50;43.87;100224.91;4900282;29;1082;-44
2024/02/07 10:38:32;;;;;;;;;;;;;;;15.38;44.38;100218.78;4900628;29;1011;-48
2024/02/07 10:40:57;;;;;;;;;;;;;;;16.57;41.96;100226.34;4901202;29;1110;-46
2024/02/07 10:43:23;;;;;;;;;;;;;;;17.25;39.96;100219.09;4888477;29;1137;-48
2024/02/07 10:45:57;;;;;;;;;;;;;;;16.32;42.16;100224.84;4900477;29;1139;-48
2024/02/07 10:48:22;;;;;;;;;;;;;;;15.91;43.05;100214.72;4900723;29;1002;-45
2024/02/07 10:50:48;;;;;;;;;;;;;;;15.74;43.30;100214.25;4900635;29;1063;-45
2024/02/07 10:53:14;;;;;;;;;;;;;;;15.62;43.75;100207.22;4888799;29;1915;-50
2024/02/07 10:55:39;;;;;;;;;;;;;;;15.51;44.16;100218.69;4892427;29;1122;-47
2024/02/07 10:58:05;;;;;;;;;;;;;;;15.68;43.60;100201.47;4910076;29;1131;-47
2024/02/07 11:00:30;;;;;;;;;;;;;;;17.51;40.16;100202.75;4882111;29;1047;-47
2024/02/07 11:02:56;;;;;;;;;;;;;;;16.79;41.09;100206.00;4898653;29;1090;-45
2024/02/07 11:05:22;;;;;;;;;;;;;;;16.16;42.33;100203.03;4900751;29;1166;-42
2024/02/07 11:07:48;;;;;;;;;;;;;;;15.85;43.26;100196.66;4895012;29;1087;-42
2024/02/07 11:10:13;;;;;;;;;;;;;;;15.69;43.62;100197.84;4900370;29;1075;-44
2024/02/07 11:12:39;;;;;;;;;;;;;;;15.59;43.67;100194.22;4884245;29;1907;-44
2024/02/07 11:15:05;;;;;;;;;;;;;;;15.52;43.86;100193.84;4895706;29;1080;-46
2024/02/07 11:17:31;;;;;;;;;;;;;;;15.74;43.66;100198.34;4902511;29;1149;-45
2024/02/07 11:19:56;;;;;;;;;;;;;;;17.19;40.56;100193.03;4895385;29;1062;-46
2024/02/07 11:22:22;;;;;;;;;;;;;;;16.52;41.44;100188.72;4888762;29;1121;-43
2024/02/07 11:24:47;;;;;;;;;;;;;;;16.03;42.72;100179.28;4901589;29;1025;-46
2024/02/07 11:27:13;;;;;;;;;;;;;;;15.79;43.26;100177.59;4899511;29;1050;-46
2024/02/07 11:29:41;;;;;;;;;;;;;;;15.67;43.70;100175.91;4900002;29;1202;-45
2024/02/07 11:32:08;;;;;;;;;;;;;;;15.52;44.06;100159.38;4909875;29;1915;-44
2024/02/07 11:34:37;;;;;;;;;;;;;;;15.42;44.15;100167.22;4902461;29;1110;-43
2024/02/07 11:37:09;;;;;;;;;;;;;;;16.86;41.36;100159.38;4903551;29;1026;-46
2024/02/07 11:39:38;;;;;;;;;;;;;;;16.72;41.52;100154.34;4903812;29;1054;-46
2024/02/07 11:42:10;;;;;;;;;;;;;;;16.16;42.25;100149.13;4903617;29;1087;-42
2024/02/07 11:44:47;;;;;;;;;;;;;;;15.88;43.44;100143.34;4903480;29;844;-42
2024/02/07 11:47:22;;;;;;;;;;;;;;;15.66;43.65;100140.56;4892139;29;1098;-43
2024/02/07 11:49:52;;;;;;;;;;;;;;;15.58;43.87;100136.88;4903316;29;1155;-42
2024/02/07 11:52:24;;;;;;;;;;;;;;;15.37;44.14;100135.78;4903163;29;1912;-44
2024/02/07 11:54:49;;;;;;;;;;;;;;;15.32;44.52;100129.13;4903284;29;1201;-44
2024/02/07 11:57:15;;;;;;;;;;;;;;;16.19;42.85;100125.00;4902752;29;1377;-48
2024/02/07 11:59:41;;;;;;;;;;;;;;;17.24;40.27;100127.88;4902691;29;1026;-45
2024/02/07 12:02:07;;;;;;;;;;;;;;;16.33;42.20;100130.97;4903180;29;1126;-46
2024/02/07 12:04:39;;;;;;;;;;;;;;;15.90;43.12;100122.84;4917833;29;1129;-48
2024/02/07 12:07:04;;;;;;;;;;;;;;;15.74;43.44;100113.47;4902754;29;1010;-41
2024/02/07 12:09:30;;;;;;;;;;;;;;;15.59;43.90;100117.31;4902427;29;879;-45
2024/02/07 12:11:55;;;;;;;;;;;;;;;15.46;44.25;100107.72;4902353;29;1911;-46
2024/02/07 12:14:21;;;;;;;;;;;;;;;15.59;44.35;100112.03;4897525;29;1002;-44
2024/02/07 12:16:47;;;;;;;;;;;;;;;17.02;41.14;100108.44;4892674;29;1034;-46
2024/02/07 12:19:12;;;;;;;;;;;;;;;16.55;41.90;100107.97;4915735;29;1194;-47
2024/02/07 12:21:38;;;;;;;;;;;;;;;16.03;42.96;100105.00;4893798;29;888;-42
2024/02/07 12:24:05;;;;;;;;;;;;;;;15.78;43.75;100101.63;4884758;29;1512;-47
2024/02/07 12:26:31;;;;;;;;;;;;;;;15.64;43.67;100100.09;4901782;29;1131;-48
2024/02/07 12:28:56;;;;;;;;;;;;;;;15.53;44.05;100094.81;4902442;29;1065;-46
2024/02/07 12:31:22;;;;;;;;;;;;;;;15.46;44.25;100091.81;4897394;29;1085;-45
2024/02/07 12:33:47;;;;;;;;;;;;;;;16.85;41.54;100088.59;4883796;29;1911;-45
2024/02/07 12:36:13;;;;;;;;;;;;;;;16.84;41.23;100084.25;4897206;29;1134;-46
2024/02/07 12:38:39;;;;;;;;;;;;;;;16.19;42.84;100092.28;4893974;29;1045;-43
2024/02/07 12:41:06;;;;;;;;;;;;;;;15.86;43.71;100082.47;4898448;29;1015;-44
2024/02/07 12:43:32;;;;;;;;;;;;;;;15.69;43.81;100075.88;4901949;29;1011;-45
2024/02/07 12:45:58;;;;;;;;;;;;;;;15.51;44.19;100079.03;4893463;29;1073;-44
2024/02/07 12:48:23;;;;;;;;;;;;;;;15.42;44.61;100074.44;4901100;29;1573;-47
2024/02/07 12:50:49;;;;;;;;;;;;;;;16.26;42.95;100073.09;4900760;29;1332;-45
2024/02/07 12:53:17;;;;;;;;;;;;;;;17.42;40.31;100063.44;4897843;29;1970;-43
2024/02/07 12:55:45;;;;;;;;;;;;;;;16.55;41.82;100068.16;4894120;29;1363;-45
2024/02/07 12:58:11;;;;;;;;;;;;;;;16.11;42.88;100061.94;4902174;29;1158;-44
2024/02/07 13:00:36;;;;;;;;;;;;;;;15.81;43.68;100057.28;4901567;29;1073;-45
2024/02/07 13:03:02;;;;;;;;;;;;;;;15.66;44.20;100055.72;4902147;29;1097;-44
2024/02/07 13:05:28;;;;;;;;;;;;;;;15.62;43.85;100053.44;4901940;29;1116;-47
2024/02/07 13:07:53;;;;;;;;;;;;;;;15.45;44.38;100052.16;4900015;29;1061;-47
2024/02/07 13:10:19;;;;;;;;;;;;;;;16.07;43.53;100049.03;4895245;29;1058;-43
2024/02/07 13:12:44;;;;;;;;;;;;;;;17.23;40.65;100042.97;4899064;29;1907;-43
2024/02/07 13:15:17;;;;;;;;;;;;;;;16.38;42.05;100043.84;4901764;29;1074;-43
2024/02/07 13:17:43;;;;;;;;;;;;;;;15.96;43.53;100039.28;4902243;29;1128;-44
2024/02/07 13:20:09;;;;;;;;;;;;;;;15.72;44.24;100043.78;4897746;29;1129;-43
2024/02/07 13:22:34;;;;;;;;;;;;;;;15.65;44.28;100037.28;4893025;29;1208;-41
2024/02/07 13:25:00;;;;;;;;;;;;;;;15.48;44.25;100038.66;4916271;29;1122;-47
2024/02/07 13:27:25;;;;;;;;;;;;;;;15.35;44.47;100044.94;4897722;29;1501;-43
2024/02/07 13:29:51;;;;;;;;;;;;;;;16.39;42.40;100050.84;4893036;29;1120;-45
2024/02/07 13:32:21;;;;;;;;;;;;;;;17.30;40.38;100052.06;4901144;29;1998;-44
2024/02/07 13:34:48;;;;;;;;;;;;;;;16.34;42.23;100055.69;4891010;29;1073;-43
2024/02/07 13:37:13;;;;;;;;;;;;;;;16.01;43.30;100055.69;4887443;29;1066;-44
2024/02/07 13:39:39;;;;;;;;;;;;;;;15.78;43.85;100053.09;4896504;29;1110;-43
2024/02/07 13:42:04;;;;;;;;;;;;;;;15.61;44.07;100057.94;4901235;29;1137;-44
2024/02/07 13:44:32;;;;;;;;;;;;;;;15.48;44.70;100051.91;4897033;29;1035;-44
2024/02/07 13:46:57;;;;;;;;;;;;;;;15.50;44.28;100058.78;4898382;29;1408;-44
2024/02/07 13:49:23;;;;;;;;;;;;;;;16.98;41.13;100056.50;4901548;29;1193;-46